createdAt,value
2022-11-09T00:00:02.156Z,73.00
2022-11-09T00:01:14.378Z,73.49
2022-11-09T00:02:18.246Z,73.28
2022-11-09T00:03:22.650Z,73.52
2022-11-09T00:04:26.559Z,73.70
2022-11-09T00:05:30.359Z,73.50
2022-11-09T00:06:34.372Z,73.25
2022-11-09T00:07:38.399Z,73.03
2022-11-09T00:08:42.430Z,72.95
2022-11-09T00:09:46.163Z,73.23
2022-11-09T00:10:50.016Z,73.67
2022-11-09T00:11:55.104Z,73.70
2022-11-09T00:13:00.988Z,74.14
2022-11-09T00:14:06.093Z,73.49
2022-11-09T00:15:09.945Z,73.94
2022-11-09T00:16:14.866Z,73.58
2022-11-09T00:17:18.952Z,73.34
2022-11-09T00:18:25.052Z,73.31
2022-11-09T00:19:30.006Z,73.82
2022-11-09T00:20:35.259Z,73.55
2022-11-09T00:21:40.849Z,73.37
2022-11-09T00:22:48.416Z,73.22
2022-11-09T00:23:53.460Z,73.34
2022-11-09T00:24:57.174Z,73.84
2022-11-09T00:26:04.719Z,73.30
2022-11-09T00:27:08.693Z,73.09
2022-11-09T00:28:15.257Z,73.09
2022-11-09T00:29:20.108Z,73.16
2022-11-09T00:30:27.516Z,73.63
2022-11-09T00:31:32.107Z,73.36
2022-11-09T00:32:35.795Z,73.23
2022-11-09T00:33:41.238Z,73.28
2022-11-09T00:34:45.674Z,73.53
2022-11-09T00:35:52.431Z,73.27
2022-11-09T00:36:56.819Z,73.43
2022-11-09T00:38:02.549Z,73.31
2022-11-09T00:39:08.023Z,73.47
2022-11-09T00:40:12.485Z,73.74
2022-11-09T00:41:16.306Z,74.06
2022-11-09T00:42:22.533Z,73.57
2022-11-09T00:43:29.881Z,73.58
2022-11-09T00:44:34.204Z,74.04
2022-11-09T00:45:39.415Z,73.57
2022-11-09T00:46:45.465Z,73.36
2022-11-09T00:47:50.181Z,73.22
2022-11-09T00:48:57.563Z,73.43
2022-11-09T00:50:05.092Z,73.43
2022-11-09T00:51:10.881Z,73.38
2022-11-09T00:52:14.411Z,73.41
2022-11-09T00:53:19.823Z,73.38
2022-11-09T00:54:23.930Z,73.31
2022-11-09T00:55:27.828Z,73.67
2022-11-09T00:56:32.280Z,73.98
2022-11-09T00:57:38.028Z,73.48
2022-11-09T00:58:42.169Z,73.82
2022-11-09T00:59:46.417Z,73.94
2022-11-09T01:00:50.187Z,74.09
2022-11-09T01:01:53.795Z,74.14
2022-11-09T01:02:57.786Z,73.52
2022-11-09T01:04:03.204Z,73.52
2022-11-09T01:05:07.607Z,74.05
2022-11-09T01:06:17.513Z,73.92
2022-11-09T01:07:21.987Z,74.13
2022-11-09T01:08:26.544Z,74.08
2022-11-09T01:09:31.506Z,74.31
2022-11-09T01:10:35.988Z,74.38
2022-11-09T01:11:39.779Z,74.10
2022-11-09T01:12:43.829Z,73.66
2022-11-09T01:13:48.299Z,74.30
2022-11-09T01:14:57.183Z,74.38
2022-11-09T01:16:06.975Z,74.10
2022-11-09T01:17:13.669Z,73.65
2022-11-09T01:18:19.301Z,73.63
2022-11-09T01:19:24.027Z,73.97
2022-11-09T01:20:32.550Z,73.83
2022-11-09T01:21:38.729Z,73.58
2022-11-09T01:22:42.888Z,73.65
2022-11-09T01:23:46.700Z,73.87
2022-11-09T01:24:50.488Z,73.66
2022-11-09T01:26:02.320Z,73.72
2022-11-09T01:27:07.008Z,73.80
2022-11-09T01:28:11.831Z,73.71
2022-11-09T01:29:15.376Z,73.58
2022-11-09T01:30:19.740Z,73.85
2022-11-09T01:31:23.472Z,74.22
2022-11-09T01:32:26.933Z,74.40
2022-11-09T01:33:31.674Z,74.03
2022-11-09T01:34:38.138Z,73.69
2022-11-09T01:35:43.035Z,74.12
2022-11-09T01:36:47.439Z,73.71
2022-11-09T01:37:53.345Z,73.90
2022-11-09T01:38:57.467Z,73.96
2022-11-09T01:40:05.688Z,74.05
2022-11-09T01:41:20.258Z,73.95
2022-11-09T01:42:29.837Z,73.55
2022-11-09T01:43:34.030Z,73.81
2022-11-09T01:44:39.955Z,74.34
2022-11-09T01:45:51.085Z,74.41
2022-11-09T01:47:03.534Z,74.85
2022-11-09T01:48:14.786Z,74.99
2022-11-09T01:49:22.369Z,75.37
2022-11-09T01:50:39.266Z,75.14
2022-11-09T01:51:47.038Z,74.84
2022-11-09T01:52:52.148Z,74.92
2022-11-09T01:54:04.501Z,74.82
2022-11-09T01:55:13.831Z,74.55
2022-11-09T01:56:22.391Z,75.24
2022-11-09T01:57:49.472Z,75.01
2022-11-09T01:59:03.386Z,74.86
2022-11-09T02:00:08.705Z,75.58
2022-11-09T02:01:19.112Z,75.92
2022-11-09T02:02:24.284Z,75.38
2022-11-09T02:03:30.906Z,75.02
2022-11-09T02:04:39.942Z,75.01
2022-11-09T02:05:46.386Z,74.62
2022-11-09T02:06:51.558Z,74.79
2022-11-09T02:07:56.821Z,74.69
2022-11-09T02:09:05.833Z,75.08
2022-11-09T02:10:33.124Z,74.98
2022-11-09T02:11:38.705Z,75.48
2022-11-09T02:12:43.736Z,75.50
2022-11-09T02:13:52.133Z,75.47
2022-11-09T02:14:58.323Z,75.69
2022-11-09T02:16:03.617Z,75.46
2022-11-09T02:17:08.668Z,76.38
2022-11-09T02:18:13.276Z,75.98
2022-11-09T02:19:17.250Z,75.52
2022-11-09T02:20:21.303Z,75.85
2022-11-09T02:21:28.986Z,75.63
2022-11-09T02:22:34.898Z,75.85
2022-11-09T02:23:38.885Z,75.70
2022-11-09T02:24:43.006Z,75.71
2022-11-09T02:25:52.909Z,75.66
2022-11-09T02:26:57.048Z,75.57
2022-11-09T02:28:03.887Z,75.50
2022-11-09T02:29:11.254Z,75.57
2022-11-09T02:30:15.553Z,75.42
2022-11-09T02:31:20.038Z,75.45
2022-11-09T02:32:27.135Z,75.40
2022-11-09T02:33:43.252Z,75.53
2022-11-09T02:34:46.883Z,75.87
2022-11-09T02:35:51.451Z,76.21
2022-11-09T02:36:55.654Z,76.12
2022-11-09T02:38:00.784Z,76.00
2022-11-09T02:39:04.483Z,75.56
2022-11-09T02:40:10.768Z,75.30
2022-11-09T02:41:15.047Z,75.48
2022-11-09T02:42:21.691Z,75.69
2022-11-09T02:43:27.087Z,75.62
2022-11-09T02:44:30.891Z,75.38
2022-11-09T02:45:34.408Z,75.46
2022-11-09T02:46:37.984Z,75.31
2022-11-09T02:47:42.217Z,75.69
2022-11-09T02:48:45.985Z,75.58
2022-11-09T02:49:50.459Z,75.49
2022-11-09T02:50:54.142Z,75.37
2022-11-09T02:51:57.764Z,75.27
2022-11-09T02:53:01.859Z,75.23
2022-11-09T02:54:05.469Z,75.46
2022-11-09T02:55:09.334Z,75.50
2022-11-09T02:56:15.739Z,75.41
2022-11-09T02:57:20.870Z,75.38
2022-11-09T02:58:27.935Z,75.53
2022-11-09T02:59:33.395Z,75.43
2022-11-09T03:00:43.171Z,75.11
2022-11-09T03:01:47.971Z,75.21
2022-11-09T03:02:51.893Z,75.26
2022-11-09T03:03:55.850Z,75.43
2022-11-09T03:05:00.336Z,75.33
2022-11-09T03:06:06.425Z,75.42
2022-11-09T03:07:10.241Z,75.12
2022-11-09T03:08:15.890Z,75.20
2022-11-09T03:09:20.122Z,75.11
2022-11-09T03:10:23.996Z,75.11
2022-11-09T03:11:31.726Z,75.15
2022-11-09T03:12:39.478Z,75.24
2022-11-09T03:13:45.764Z,75.17
2022-11-09T03:14:55.626Z,75.30
2022-11-09T03:16:06.790Z,75.21
2022-11-09T03:17:14.331Z,75.05
2022-11-09T03:18:18.456Z,74.79
2022-11-09T03:19:22.146Z,75.15
2022-11-09T03:20:28.112Z,74.96
2022-11-09T03:21:32.517Z,74.95
2022-11-09T03:22:35.997Z,74.95
2022-11-09T03:23:39.632Z,75.01
2022-11-09T03:24:43.396Z,75.09
2022-11-09T03:25:47.241Z,75.27
2022-11-09T03:26:51.204Z,75.05
2022-11-09T03:28:03.249Z,75.30
2022-11-09T03:29:09.087Z,75.39
2022-11-09T03:30:13.704Z,75.42
2022-11-09T03:31:17.488Z,75.57
2022-11-09T03:32:21.219Z,75.51
2022-11-09T03:33:34.783Z,75.60
2022-11-09T03:34:41.684Z,75.52
2022-11-09T03:35:45.271Z,75.71
2022-11-09T03:36:54.792Z,75.57
2022-11-09T03:38:01.194Z,75.18
2022-11-09T03:39:05.023Z,75.26
2022-11-09T03:40:11.093Z,75.15
2022-11-09T03:41:18.728Z,75.12
2022-11-09T03:42:22.724Z,75.03
2022-11-09T03:43:28.178Z,74.93
2022-11-09T03:44:33.897Z,75.03
2022-11-09T03:45:37.306Z,75.15
2022-11-09T03:46:56.246Z,75.09
2022-11-09T03:48:03.238Z,75.26
2022-11-09T03:49:07.425Z,75.47
2022-11-09T03:50:12.145Z,75.64
2022-11-09T03:51:15.604Z,75.13
2022-11-09T03:52:19.452Z,75.29
2022-11-09T03:53:23.117Z,75.29
2022-11-09T03:54:26.815Z,75.16
2022-11-09T03:55:31.112Z,75.12
2022-11-09T03:56:34.945Z,74.97
2022-11-09T03:57:39.800Z,75.01
2022-11-09T03:58:44.212Z,74.96
2022-11-09T03:59:48.517Z,75.61
2022-11-09T04:00:53.043Z,75.23
2022-11-09T04:01:57.743Z,74.87
2022-11-09T04:03:02.355Z,74.99
2022-11-09T04:04:05.614Z,75.20
2022-11-09T04:05:09.509Z,75.00
2022-11-09T04:06:12.734Z,75.13
2022-11-09T04:07:16.845Z,74.96
2022-11-09T04:08:21.054Z,74.88
2022-11-09T04:09:24.939Z,74.71
2022-11-09T04:10:29.313Z,75.27
2022-11-09T04:11:32.855Z,75.12
2022-11-09T04:12:36.943Z,75.59
2022-11-09T04:13:40.670Z,75.58
2022-11-09T04:14:44.136Z,75.26
2022-11-09T04:15:47.508Z,75.51
2022-11-09T04:16:50.836Z,75.55
2022-11-09T04:17:55.053Z,75.56
2022-11-09T04:18:58.889Z,75.61
2022-11-09T04:20:02.415Z,75.39
2022-11-09T04:21:06.887Z,75.43
2022-11-09T04:22:11.035Z,75.45
2022-11-09T04:23:15.169Z,75.54
2022-11-09T04:24:19.829Z,75.98
2022-11-09T04:25:23.285Z,76.63
2022-11-09T04:26:26.767Z,76.94
2022-11-09T04:27:31.003Z,77.32
2022-11-09T04:28:34.959Z,77.78
2022-11-09T04:29:39.497Z,78.39
2022-11-09T04:30:43.481Z,78.92
2022-11-09T04:31:49.433Z,78.80
2022-11-09T04:32:52.632Z,79.30
2022-11-09T04:33:56.133Z,79.63
2022-11-09T04:35:00.229Z,79.84
2022-11-09T04:36:04.758Z,79.88
2022-11-09T04:37:09.390Z,79.61
2022-11-09T04:38:13.793Z,80.02
2022-11-09T04:39:17.729Z,79.96
2022-11-09T04:40:21.680Z,79.93
2022-11-09T04:41:24.910Z,80.02
2022-11-09T04:42:29.168Z,80.17
2022-11-09T04:43:32.674Z,79.36
2022-11-09T04:44:36.865Z,79.93
2022-11-09T04:45:44.554Z,79.59
2022-11-09T04:46:53.331Z,79.42
2022-11-09T04:48:01.292Z,79.21
2022-11-09T04:49:04.731Z,78.78
2022-11-09T04:50:08.707Z,78.59
2022-11-09T04:51:12.202Z,79.24
2022-11-09T04:52:15.686Z,78.68
2022-11-09T04:53:19.565Z,78.82
2022-11-09T04:54:22.899Z,78.88
2022-11-09T04:55:26.090Z,78.35
2022-11-09T04:56:29.657Z,78.44
2022-11-09T04:57:33.078Z,78.69
2022-11-09T04:58:37.304Z,78.44
2022-11-09T04:59:42.785Z,78.52
2022-11-09T05:00:46.447Z,78.58
2022-11-09T05:01:50.404Z,78.83
2022-11-09T05:02:53.835Z,78.81
2022-11-09T05:03:57.813Z,79.42
2022-11-09T05:05:01.454Z,79.37
2022-11-09T05:06:24.759Z,79.43
2022-11-09T05:07:28.112Z,79.90
2022-11-09T05:08:31.806Z,79.97
2022-11-09T05:09:35.829Z,79.81
2022-11-09T05:10:39.759Z,80.00
2022-11-09T05:11:45.993Z,79.39
2022-11-09T05:12:49.286Z,79.29
2022-11-09T05:13:53.129Z,78.96
2022-11-09T05:14:56.975Z,78.82
2022-11-09T05:16:01.767Z,78.60
2022-11-09T05:17:05.465Z,78.63
2022-11-09T05:18:10.688Z,78.86
2022-11-09T05:19:14.070Z,78.79
2022-11-09T05:20:17.765Z,78.82
2022-11-09T05:21:21.326Z,78.93
2022-11-09T05:22:44.177Z,78.64
2022-11-09T05:24:00.839Z,78.90
2022-11-09T05:25:04.691Z,79.10
2022-11-09T05:26:08.447Z,78.93
2022-11-09T05:27:13.731Z,79.22
2022-11-09T05:28:19.677Z,79.19
2022-11-09T05:29:22.903Z,79.19
2022-11-09T05:30:26.471Z,79.39
2022-11-09T05:31:30.851Z,79.58
2022-11-09T05:32:36.737Z,79.27
2022-11-09T05:33:41.839Z,79.35
2022-11-09T05:34:45.248Z,79.93
2022-11-09T05:35:49.299Z,79.77
2022-11-09T05:36:53.071Z,79.75
2022-11-09T05:37:58.008Z,80.02
2022-11-09T05:39:05.464Z,79.88
2022-11-09T05:40:24.977Z,79.71
2022-11-09T05:41:32.629Z,79.63
2022-11-09T05:42:41.717Z,79.55
2022-11-09T05:43:46.256Z,79.38
2022-11-09T05:45:04.067Z,79.52
2022-11-09T05:46:22.989Z,79.40
2022-11-09T05:47:28.114Z,79.53
2022-11-09T05:48:35.375Z,79.34
2022-11-09T05:49:40.348Z,79.60
2022-11-09T05:50:44.762Z,79.18
2022-11-09T05:52:06.399Z,79.50
2022-11-09T05:53:12.753Z,79.32
2022-11-09T05:54:18.830Z,79.04
2022-11-09T05:55:31.881Z,79.03
2022-11-09T05:56:38.140Z,79.03
2022-11-09T05:57:43.268Z,79.08
2022-11-09T05:58:47.433Z,79.19
2022-11-09T05:59:55.895Z,78.93
2022-11-09T06:01:07.989Z,79.31
2022-11-09T06:02:35.632Z,79.71
2022-11-09T06:03:44.765Z,79.50
2022-11-09T06:04:50.772Z,79.59
2022-11-09T06:06:08.635Z,79.23
2022-11-09T06:07:26.619Z,79.33
2022-11-09T06:08:37.697Z,79.07
2022-11-09T06:09:46.566Z,78.99
2022-11-09T06:10:57.870Z,79.32
2022-11-09T06:12:07.681Z,79.21
2022-11-09T06:13:20.680Z,79.77
2022-11-09T06:14:50.107Z,80.26
2022-11-09T06:16:11.628Z,79.93
2022-11-09T06:17:20.470Z,79.93
2022-11-09T06:18:28.016Z,79.95
2022-11-09T06:19:32.725Z,79.82
2022-11-09T06:20:37.520Z,79.77
2022-11-09T06:21:42.378Z,80.17
2022-11-09T06:23:01.450Z,80.65
2022-11-09T06:24:20.192Z,81.51
2022-11-09T06:25:26.315Z,81.76
2022-11-09T06:26:31.709Z,81.52
2022-11-09T06:27:36.366Z,82.41
2022-11-09T06:28:42.347Z,82.87
2022-11-09T06:29:46.598Z,82.69
2022-11-09T06:30:53.131Z,83.03
2022-11-09T06:31:59.565Z,83.25
2022-11-09T06:33:12.894Z,84.50
2022-11-09T06:34:17.584Z,85.23
2022-11-09T06:35:22.536Z,84.63
2022-11-09T06:36:25.988Z,84.69
2022-11-09T06:37:38.178Z,84.73
2022-11-09T06:38:44.439Z,85.26
2022-11-09T06:39:52.395Z,85.44
2022-11-09T06:40:57.575Z,85.72
2022-11-09T06:42:02.834Z,85.95
2022-11-09T06:43:08.138Z,86.08
2022-11-09T06:44:16.559Z,86.13
2022-11-09T06:45:25.806Z,86.49
2022-11-09T06:46:29.819Z,86.59
2022-11-09T06:47:33.786Z,86.55
2022-11-09T06:48:38.552Z,86.53
2022-11-09T06:49:42.583Z,86.58
2022-11-09T06:50:46.329Z,86.56
2022-11-09T06:51:52.762Z,86.38
2022-11-09T06:53:06.545Z,86.34
2022-11-09T06:54:24.358Z,86.14
2022-11-09T06:55:32.944Z,85.95
2022-11-09T06:56:56.204Z,86.08
2022-11-09T06:58:26.020Z,86.06
2022-11-09T06:59:49.255Z,85.97
2022-11-09T07:01:00.748Z,85.67
2022-11-09T07:02:04.936Z,85.30
2022-11-09T07:03:13.894Z,85.33
2022-11-09T07:04:19.013Z,85.11
2022-11-09T07:05:28.829Z,84.83
2022-11-09T07:06:43.512Z,85.14
2022-11-09T07:07:47.853Z,84.83
2022-11-09T07:08:57.603Z,84.91
2022-11-09T07:10:04.125Z,84.85
2022-11-09T07:11:12.670Z,84.75
2022-11-09T07:12:17.803Z,84.93
2022-11-09T07:13:25.672Z,85.05
2022-11-09T07:14:30.488Z,85.23
2022-11-09T07:15:38.942Z,84.84
2022-11-09T07:16:44.377Z,84.84
2022-11-09T07:17:49.725Z,84.99
2022-11-09T07:18:59.321Z,84.90
2022-11-09T07:20:04.477Z,85.21
2022-11-09T07:21:14.639Z,84.82
2022-11-09T07:22:20.893Z,85.13
2022-11-09T07:23:26.723Z,85.11
2022-11-09T07:24:33.132Z,85.19
2022-11-09T07:25:37.225Z,85.21
2022-11-09T07:26:42.230Z,85.23
2022-11-09T07:27:46.683Z,85.47
2022-11-09T07:28:50.533Z,85.07
2022-11-09T07:29:54.651Z,85.13
2022-11-09T07:31:02.538Z,85.01
2022-11-09T07:32:07.777Z,84.97
2022-11-09T07:33:16.371Z,84.77
2022-11-09T07:34:23.216Z,84.75
2022-11-09T07:35:30.377Z,84.62
2022-11-09T07:36:39.227Z,84.60
2022-11-09T07:37:44.304Z,84.23
2022-11-09T07:38:48.287Z,84.01
2022-11-09T07:39:53.363Z,83.71
2022-11-09T07:41:04.468Z,83.11
2022-11-09T07:42:10.281Z,82.99
2022-11-09T07:43:19.792Z,83.17
2022-11-09T07:44:28.500Z,83.02
2022-11-09T07:45:34.233Z,82.83
2022-11-09T07:46:39.254Z,82.69
2022-11-09T07:47:43.323Z,82.36
2022-11-09T07:48:48.147Z,82.42
2022-11-09T07:49:54.021Z,82.53
2022-11-09T07:51:01.568Z,82.16
2022-11-09T07:52:12.327Z,81.56
2022-11-09T07:53:19.000Z,81.09
2022-11-09T07:54:26.658Z,80.48
2022-11-09T07:55:33.094Z,80.25
2022-11-09T07:56:37.663Z,80.16
2022-11-09T07:57:41.924Z,79.91
2022-11-09T07:58:45.523Z,79.72
2022-11-09T07:59:52.020Z,79.17
2022-11-09T08:00:55.617Z,78.49
2022-11-09T08:01:59.933Z,78.15
2022-11-09T08:03:04.657Z,77.53
2022-11-09T08:04:10.587Z,76.52
2022-11-09T08:05:14.025Z,76.14
2022-11-09T08:06:18.834Z,75.55
2022-11-09T08:07:24.197Z,74.95
2022-11-09T08:08:46.803Z,74.32
2022-11-09T08:10:08.171Z,72.96
2022-11-09T08:11:14.363Z,72.50
2022-11-09T08:12:23.867Z,72.53
2022-11-09T08:13:31.312Z,72.43
2022-11-09T08:14:37.098Z,72.43
2022-11-09T08:15:46.012Z,72.56
2022-11-09T08:16:51.149Z,72.01
2022-11-09T08:17:55.348Z,71.65
2022-11-09T08:19:02.947Z,71.56
2022-11-09T08:20:07.973Z,71.23
2022-11-09T08:21:12.676Z,70.80
2022-11-09T08:22:19.215Z,70.33
2022-11-09T08:23:24.432Z,69.46
2022-11-09T08:24:29.822Z,69.52
2022-11-09T08:25:35.631Z,69.65
2022-11-09T08:26:43.989Z,69.10
2022-11-09T08:27:48.853Z,69.20
2022-11-09T08:28:53.846Z,69.00
2022-11-09T08:30:00.614Z,68.63
2022-11-09T08:31:06.094Z,68.55
2022-11-09T08:32:11.199Z,68.60
2022-11-09T08:33:17.699Z,68.05
2022-11-09T08:34:21.524Z,68.95
2022-11-09T08:35:26.084Z,69.00
2022-11-09T08:36:31.002Z,68.96
2022-11-09T08:37:35.433Z,68.80
2022-11-09T08:38:43.844Z,68.90
2022-11-09T08:39:49.174Z,68.99
2022-11-09T08:41:02.355Z,68.80
2022-11-09T08:42:07.306Z,68.70
2022-11-09T08:43:12.461Z,68.49
2022-11-09T08:44:16.058Z,67.93
2022-11-09T08:45:22.584Z,67.54
2022-11-09T08:46:26.291Z,67.08
2022-11-09T08:47:30.673Z,66.75
2022-11-09T08:48:35.851Z,66.15
2022-11-09T08:49:40.764Z,66.22
2022-11-09T08:50:44.883Z,65.64
2022-11-09T08:51:48.406Z,65.54
2022-11-09T08:52:52.130Z,65.65
2022-11-09T08:53:57.565Z,65.92
2022-11-09T08:55:02.349Z,65.90
2022-11-09T08:56:08.399Z,65.94
2022-11-09T08:57:12.218Z,66.01
2022-11-09T08:58:15.608Z,65.66
2022-11-09T08:59:19.547Z,65.87
2022-11-09T09:00:24.938Z,65.79
2022-11-09T09:01:28.485Z,65.28
2022-11-09T09:02:35.116Z,65.05
2022-11-09T09:03:42.001Z,64.52
2022-11-09T09:04:46.795Z,64.45
2022-11-09T09:05:50.715Z,64.48
2022-11-09T09:06:56.241Z,64.16
2022-11-09T09:08:03.300Z,63.94
2022-11-09T09:09:10.648Z,63.60
2022-11-09T09:10:14.539Z,63.44
2022-11-09T09:11:18.901Z,62.93
2022-11-09T09:12:22.530Z,63.56
2022-11-09T09:13:28.227Z,63.40
2022-11-09T09:14:47.716Z,62.78
2022-11-09T09:16:14.741Z,62.27
2022-11-09T09:17:24.871Z,61.84
2022-11-09T09:18:32.842Z,61.97
2022-11-09T09:19:38.721Z,62.43
2022-11-09T09:20:47.784Z,63.08
2022-11-09T09:22:00.070Z,62.76
2022-11-09T09:23:11.337Z,62.59
2022-11-09T09:24:17.858Z,62.38
2022-11-09T09:25:24.267Z,61.91
2022-11-09T09:26:32.637Z,60.99
2022-11-09T09:27:42.129Z,60.91
2022-11-09T09:28:50.120Z,61.31
2022-11-09T09:29:57.908Z,61.16
2022-11-09T09:31:02.264Z,61.19
2022-11-09T09:32:09.467Z,61.11
2022-11-09T09:33:25.755Z,60.89
2022-11-09T09:34:32.895Z,61.16
2022-11-09T09:35:48.487Z,60.37
2022-11-09T09:36:57.808Z,60.75
2022-11-09T09:38:02.985Z,60.74
2022-11-09T09:39:07.422Z,60.33
2022-11-09T09:40:33.752Z,60.41
2022-11-09T09:41:42.455Z,60.54
2022-11-09T09:42:49.297Z,59.84
2022-11-09T09:43:56.196Z,59.71
2022-11-09T09:45:03.252Z,59.93
2022-11-09T09:46:14.260Z,59.92
2022-11-09T09:47:31.493Z,59.80
2022-11-09T09:48:43.456Z,59.79
2022-11-09T09:49:58.386Z,60.28
2022-11-09T09:51:17.899Z,60.02
2022-11-09T09:52:27.999Z,59.75
2022-11-09T09:53:34.616Z,60.34
2022-11-09T09:54:48.424Z,60.49
2022-11-09T09:56:10.632Z,60.78
2022-11-09T09:57:20.131Z,60.74
2022-11-09T09:58:27.118Z,60.85
2022-11-09T09:59:35.138Z,60.72
2022-11-09T10:00:42.246Z,60.59
2022-11-09T10:01:50.445Z,60.85
2022-11-09T10:02:55.662Z,60.84
2022-11-09T10:03:59.512Z,60.81
2022-11-09T10:05:14.478Z,60.90
2022-11-09T10:06:20.334Z,60.63
2022-11-09T10:07:38.775Z,60.54
2022-11-09T10:08:49.468Z,60.28
2022-11-09T10:09:57.911Z,60.53
2022-11-09T10:11:22.810Z,60.56
2022-11-09T10:12:45.244Z,60.00
2022-11-09T10:14:12.426Z,59.87
2022-11-09T10:15:20.714Z,59.77
2022-11-09T10:16:32.488Z,59.54
2022-11-09T10:17:37.158Z,59.53
2022-11-09T10:18:45.875Z,59.54
2022-11-09T10:20:06.188Z,59.61
2022-11-09T10:21:17.791Z,58.89
2022-11-09T10:22:25.671Z,58.29
2022-11-09T10:23:29.793Z,58.10
2022-11-09T10:24:44.399Z,58.19
2022-11-09T10:26:05.291Z,57.93
2022-11-09T10:27:30.074Z,58.15
2022-11-09T10:29:01.595Z,58.69
2022-11-09T10:30:15.547Z,58.43
2022-11-09T10:31:21.186Z,58.15
2022-11-09T10:32:30.594Z,57.79
2022-11-09T10:33:34.695Z,57.38
2022-11-09T10:34:53.679Z,57.49
2022-11-09T10:36:05.272Z,57.88
2022-11-09T10:37:15.859Z,57.97
2022-11-09T10:38:24.150Z,58.14
2022-11-09T10:39:55.721Z,58.21
2022-11-09T10:41:17.808Z,58.53
2022-11-09T10:42:42.685Z,59.05
2022-11-09T10:44:05.175Z,59.10
2022-11-09T10:45:32.724Z,59.35
2022-11-09T10:47:03.792Z,59.19
2022-11-09T10:48:36.651Z,59.77
2022-11-09T10:50:17.850Z,59.96
2022-11-09T10:51:42.495Z,60.06
2022-11-09T10:53:23.095Z,60.02
2022-11-09T10:54:45.619Z,61.06
2022-11-09T10:56:20.813Z,61.66
2022-11-09T10:58:02.947Z,61.93
2022-11-09T10:59:47.991Z,62.19
2022-11-09T11:01:18.366Z,62.66
2022-11-09T11:02:42.634Z,62.98
2022-11-09T11:04:20.715Z,62.97
2022-11-09T11:05:44.034Z,63.52
2022-11-09T11:07:21.282Z,63.96
2022-11-09T11:08:45.277Z,64.24
2022-11-09T11:10:12.260Z,64.37
2022-11-09T11:11:36.683Z,64.63
2022-11-09T11:13:18.385Z,64.35
2022-11-09T11:14:45.165Z,64.48
2022-11-09T11:16:16.876Z,64.12
2022-11-09T11:17:43.405Z,63.77
2022-11-09T11:19:27.162Z,63.43
2022-11-09T11:21:05.244Z,63.39
2022-11-09T11:22:29.689Z,63.45
2022-11-09T11:24:16.900Z,63.65
2022-11-09T11:25:56.464Z,63.43
2022-11-09T11:27:43.878Z,63.36
2022-11-09T11:29:25.155Z,62.93
2022-11-09T11:30:52.427Z,62.75
2022-11-09T11:32:16.927Z,62.67
2022-11-09T11:33:41.455Z,62.35
2022-11-09T11:35:17.302Z,61.49
2022-11-09T11:36:52.173Z,61.13
2022-11-09T11:38:30.364Z,60.64
2022-11-09T11:39:55.413Z,59.99
2022-11-09T11:41:27.187Z,59.66
2022-11-09T11:43:06.508Z,58.72
2022-11-09T11:44:54.705Z,58.92
2022-11-09T11:46:41.145Z,58.81
2022-11-09T11:48:15.205Z,59.17
2022-11-09T11:49:41.382Z,59.53
2022-11-09T11:51:03.710Z,59.33
2022-11-09T11:52:32.846Z,59.53
2022-11-09T11:53:58.497Z,60.13
2022-11-09T11:55:20.786Z,60.51
2022-11-09T11:56:48.161Z,60.41
2022-11-09T11:58:40.809Z,60.48
2022-11-09T12:00:09.509Z,60.36
2022-11-09T12:02:11.611Z,60.81
2022-11-09T12:03:51.349Z,60.59
2022-11-09T12:05:33.050Z,60.13
2022-11-09T12:07:02.307Z,59.62
2022-11-09T12:08:33.406Z,59.68
2022-11-09T12:10:03.122Z,60.07
2022-11-09T12:11:29.494Z,60.57
2022-11-09T12:13:01.913Z,60.63
2022-11-09T12:14:28.900Z,60.77
2022-11-09T12:15:54.921Z,60.78
2022-11-09T12:17:21.373Z,60.81
2022-11-09T12:18:53.777Z,60.94
2022-11-09T12:20:29.622Z,60.73
2022-11-09T12:22:03.125Z,61.00
2022-11-09T12:23:31.823Z,60.97
2022-11-09T12:25:06.445Z,61.15
2022-11-09T12:26:45.189Z,61.43
2022-11-09T12:28:26.222Z,62.05
2022-11-09T12:29:48.985Z,62.46
2022-11-09T12:31:30.570Z,62.66
2022-11-09T12:32:59.853Z,63.38
2022-11-09T12:34:28.243Z,64.00
2022-11-09T12:36:12.042Z,64.46
2022-11-09T12:37:46.782Z,64.87
2022-11-09T12:39:28.832Z,65.09
2022-11-09T12:41:10.558Z,65.28
2022-11-09T12:42:40.104Z,66.01
2022-11-09T12:44:04.416Z,65.89
2022-11-09T12:45:30.232Z,66.08
2022-11-09T12:47:04.863Z,65.87
2022-11-09T12:48:34.907Z,65.50
2022-11-09T12:49:57.506Z,65.60
2022-11-09T12:51:20.785Z,65.76
2022-11-09T12:52:46.128Z,66.08
2022-11-09T12:54:13.616Z,66.30
2022-11-09T12:55:43.747Z,66.34
2022-11-09T12:57:13.216Z,66.21
2022-11-09T12:58:39.295Z,66.84
2022-11-09T13:00:03.311Z,67.29
2022-11-09T13:01:27.737Z,67.85
2022-11-09T13:02:59.162Z,68.26
2022-11-09T13:04:23.382Z,68.54
2022-11-09T13:05:49.383Z,68.81
2022-11-09T13:07:16.394Z,69.15
2022-11-09T13:08:40.179Z,69.54
2022-11-09T13:10:04.195Z,69.74
2022-11-09T13:11:42.071Z,70.05
2022-11-09T13:13:05.065Z,70.46
2022-11-09T13:14:33.943Z,70.74
2022-11-09T13:16:06.936Z,71.26
2022-11-09T13:17:32.594Z,71.57
2022-11-09T13:18:58.910Z,71.98
2022-11-09T13:22:23.966Z,72.55
2022-11-09T13:24:04.052Z,72.89
2022-11-09T13:25:34.176Z,73.27
2022-11-09T13:27:00.360Z,73.65
2022-11-09T13:28:31.595Z,73.99
2022-11-09T13:29:56.848Z,74.00
2022-11-09T13:31:39.255Z,74.05
2022-11-09T13:33:09.825Z,74.05
2022-11-09T13:34:44.190Z,73.99
2022-11-09T13:36:10.547Z,74.00
2022-11-09T13:37:41.721Z,74.24
2022-11-09T13:39:27.477Z,74.46
2022-11-09T13:40:58.823Z,74.88
2022-11-09T13:42:33.238Z,75.19
2022-11-09T13:44:15.166Z,75.61
2022-11-09T13:45:47.548Z,75.82
2022-11-09T13:47:27.679Z,75.95
2022-11-09T13:48:50.695Z,76.27
2022-11-09T13:50:23.730Z,76.36
2022-11-09T13:51:49.057Z,76.51
2022-11-09T13:53:31.245Z,76.73
2022-11-09T13:54:54.860Z,76.80
2022-11-09T13:56:28.529Z,76.88
2022-11-09T13:57:54.927Z,77.15
2022-11-09T13:59:22.302Z,77.28
2022-11-09T14:00:47.644Z,77.31
2022-11-09T14:02:18.225Z,77.46
2022-11-09T14:03:40.536Z,77.77
2022-11-09T14:05:04.244Z,77.95
2022-11-09T14:06:30.622Z,77.89
2022-11-09T14:07:53.849Z,78.31
2022-11-09T14:09:18.999Z,78.69
2022-11-09T14:11:00.141Z,78.95
2022-11-09T14:12:42.660Z,79.07
2022-11-09T14:14:05.241Z,79.20
2022-11-09T14:15:45.728Z,79.39
2022-11-09T14:17:20.132Z,79.35
2022-11-09T14:18:55.433Z,79.50
2022-11-09T14:20:36.404Z,79.47
2022-11-09T14:21:58.599Z,79.36
2022-11-09T14:23:25.475Z,79.42
2022-11-09T14:24:50.732Z,79.49
2022-11-09T14:26:21.336Z,79.55
2022-11-09T14:28:00.778Z,79.57
2022-11-09T14:29:24.363Z,79.43
2022-11-09T14:30:46.500Z,79.42
2022-11-09T14:32:21.414Z,79.35
2022-11-09T14:33:44.260Z,79.34
2022-11-09T14:35:15.325Z,79.24
2022-11-09T14:36:41.084Z,79.08
2022-11-09T14:38:20.374Z,79.27
2022-11-09T14:39:43.173Z,79.33
2022-11-09T14:41:05.400Z,79.48
2022-11-09T14:42:27.584Z,79.50
2022-11-09T14:43:49.817Z,79.69
2022-11-09T14:45:16.455Z,79.74
2022-11-09T14:46:38.618Z,79.94
2022-11-09T14:48:01.300Z,80.09
2022-11-09T14:49:26.982Z,80.11
2022-11-09T14:50:49.607Z,80.21
2022-11-09T14:52:16.626Z,80.13
2022-11-09T14:53:41.890Z,80.36
2022-11-09T14:55:05.890Z,80.11
2022-11-09T14:56:29.705Z,80.21
2022-11-09T14:57:54.033Z,80.20
2022-11-09T14:59:17.325Z,80.29
2022-11-09T15:00:44.695Z,80.37
2022-11-09T15:02:11.573Z,80.37
2022-11-09T15:03:34.271Z,80.48
2022-11-09T15:04:57.216Z,80.35
2022-11-09T15:06:19.595Z,80.26
2022-11-09T15:07:46.118Z,80.36
2022-11-09T15:09:09.543Z,80.55
2022-11-09T15:10:33.064Z,80.48
2022-11-09T15:11:55.475Z,80.47
2022-11-09T15:13:18.651Z,80.47
2022-11-09T15:14:40.900Z,80.66
2022-11-09T15:16:03.467Z,80.73
2022-11-09T15:17:25.673Z,80.73
2022-11-09T15:18:53.679Z,80.64
2022-11-09T15:20:17.184Z,80.69
2022-11-09T15:21:38.893Z,80.74
2022-11-09T15:23:01.686Z,80.70
2022-11-09T15:24:27.791Z,80.75
2022-11-09T15:25:51.071Z,80.81
2022-11-09T15:27:33.654Z,80.84
2022-11-09T15:28:56.112Z,81.01
2022-11-09T15:30:35.566Z,81.18
2022-11-09T15:32:02.587Z,81.20
2022-11-09T15:33:34.948Z,81.09
2022-11-09T15:34:59.280Z,81.15
2022-11-09T15:36:27.865Z,81.39
2022-11-09T15:37:52.144Z,81.39
2022-11-09T15:39:17.978Z,81.52
2022-11-09T15:40:39.874Z,81.52
2022-11-09T15:42:02.263Z,81.85